Home > Products > Valid Products > TAF

000
FTUS45 KRIW 280500
TAFRIW
TAF
KRIW 280529Z 2806/2906 08008KT P6SM SCT250
     FM280900 VRB05KT P6SM SCT250
     FM281800 08008KT P6SM SCT120 BKN200
     FM282300 VRB10G20KT P6SM VCTS SCT090CB BKN140
     FM290300 VRB06KT P6SM VCSH SCT080 BKN120=



000
FTUS45 KRIW 280500
TAFRKS
TAF
KRKS 280529Z 2806/2906 08010KT P6SM SCT250
     FM281200 11007KT P6SM SCT150 BKN250
     FM281800 14007KT P6SM VCSH SCT080 BKN140
     FM282000 VRB15G25KT P6SM VCTS SCT070CB BKN120
     FM290300 VRB06KT P6SM -SHRA SCT060 OVC100=



000
FTUS45 KRIW 280500
TAFWRL
TAF
KWRL 280529Z 2806/2906 13009KT P6SM SCT250
     FM281200 VRB05KT P6SM SCT120 BKN250
     FM282300 VRB10G20KT P6SM VCSH SCT100 BKN150
     FM290400 VRB06KT P6SM VCSH BKN100=



000
FTUS45 KRIW 280500
TAFLND
TAF
KLND 280529Z 2806/2906 25008KT P6SM SCT250
     FM281200 VRB05KT P6SM FEW150 SCT250
     FM282030 VRB05KT P6SM VCSH SCT120 BKN180
     FM282200 VRB10G20KT P6SM VCTS SCT090CB BKN140
     FM290300 VRB06KT P6SM VCSH SCT080 BKN120=



000
FTUS45 KRIW 280500
TAFCOD
TAF
KCOD 280529Z 2806/2906 VRB05KT P6SM SCT250
     FM281800 05007KT P6SM SCT120 BKN250
     FM282200 03008KT P6SM VCTS SCT080CB BKN150
     FM290300 VRB05KT P6SM VCSH BKN100
      AMD LTD TO CLD VIS AND WIND=



000
FTUS45 KRIW 280500
TAFCPR
TAF
KCPR 280529Z 2806/2906 08005KT P6SM SCT250
     FM281800 10007KT P6SM SCT120 BKN200
     FM282200 09011KT P6SM VCTS SCT080CB BKN150
     FM290400 VRB10G15KT P6SM VCSH SCT070 BKN120=



000
FTUS45 KRIW 280500
TAFBPI
TAF
KBPI 280529Z 2806/2906 VRB05KT P6SM SCT200
     FM281200 VRB05KT P6SM SCT120 BKN200
     FM281800 16008KT P6SM VCSH SCT090 BKN150
     FM282000 VRB15G25KT P6SM VCTS SCT080CB BKN120
     FM290300 VRB06KT P6SM VCSH SCT040 OVC080=



000
FTUS45 KRIW 280500
TAFJAC
TAF
KJAC 280529Z 2806/2906 35005KT P6SM SCT250
     FM281200 VRB05KT P6SM SCT120 BKN200
     FM281900 21005KT P6SM VCSH SCT080 BKN120
     FM282100 VRB10G20KT P6SM VCTS SCT070CB BKN100
     FM290300 34007KT P6SM VCSH SCT060 BKN100
      AMD LTD TO CLD VIS AND WIND=



000
FTUS45 KRIW 272300
TAFJAC
TAF
KJAC 272331Z 2800/2824 VRB05KT P6SM FEW120 SCT200
     FM280300 36005KT P6SM SCT120 BKN200
     FM281400 21005KT P6SM SCT070 BKN100
     FM282100 24008KT P6SM VCSH SCT050 BKN080
      AMD LTD TO CLD VIS AND WIND=



000
FTUS45 KRIW 272300
TAFWRL
TAF
KWRL 272331Z 2800/2824 04007KT P6SM SCT250
     FM280200 13009KT P6SM SCT200
     FM281800 VRB06KT P6SM SCT100 BKN150=



000
FTUS45 KRIW 272300
TAFCPR
TAF
KCPR 272331Z 2800/2824 05009KT P6SM FEW250
     FM280300 10011KT P6SM FEW070 SCT150 BKN250
     FM280900 08006KT P6SM SCT120 BKN250
     FM281500 15008KT P6SM SCT100 BKN150
     FM282000 11010G18KT P6SM SCT090 BKN120=



000
FTUS45 KRIW 272300
TAFCOD
TAF
KCOD 272331Z 2800/2824 35010KT P6SM SCT250
     FM280300 VRB05KT P6SM FEW150 BKN250
     FM282000 01008KT P6SM SCT080 BKN120
      AMD LTD TO CLD VIS AND WIND=



000
FTUS45 KRIW 272300
TAFBPI
TAF
KBPI 272331Z 2800/2824 VRB05KT P6SM SCT250
     FM280300 10007KT P6SM FEW120 BKN200
     FM281600 16008KT P6SM SCT080 BKN120
     FM282100 19008KT P6SM VCTS SCT050CB BKN080=



000
FTUS45 KRIW 272300
TAFLND
TAF
KLND 272331Z 2800/2824 VRB04KT P6SM SCT250
     FM280200 25008KT P6SM SCT200
     FM281400 VRB05KT P6SM SCT100 BKN150
     FM282200 VRB06KT P6SM VCTS SCT080CB BKN110=



000
FTUS45 KRIW 272300
TAFRIW
TAF
KRIW 272331Z 2800/2824 04006KT P6SM SCT250
     FM280300 08011KT P6SM SCT200
     FM280900 VRB05KT P6SM SCT200
     FM282100 03011KT P6SM SCT100 BKN150=



000
FTUS45 KRIW 272300
TAFRKS
TAF
KRKS 272331Z 2800/2824 04006KT P6SM FEW120 BKN250
     FM280300 08008KT P6SM SCT150 BKN250
     FM281200 07007KT P6SM SCT100 BKN150
     FM282100 15010KT P6SM VCTS SCT070CB BKN100=



000
FTUS45 KRIW 271700
TAFJAC
TAF
KJAC 271720Z 2718/2818 VRB03KT P6SM SCT250
     FM272000 24008KT P6SM FEW120 SCT200
     FM280300 36005KT P6SM SCT120 BKN200
     FM281400 21005KT P6SM SCT070 BKN100
      AMD LTD TO CLD VIS AND WIND=



000
FTUS45 KRIW 271700
TAFCOD
TAF
KCOD 271720Z 2718/2818 05007KT P6SM SCT250
     FM280300 VRB05KT P6SM FEW150 BKN250
      AMD LTD TO CLD VIS AND WIND=



000
FTUS45 KRIW 271700
TAFRIW
TAF
KRIW 271720Z 2718/2818 06007KT P6SM SCT250
     FM280300 08011KT P6SM SCT200
     FM280900 VRB05KT P6SM SCT200=



000
FTUS45 KRIW 271700
TAFLND
TAF
KLND 271720Z 2718/2818 04007KT P6SM SCT250
     FM280100 25008KT P6SM SCT200
     FM281400 VRB05KT P6SM SCT100 BKN150=



000
FTUS45 KRIW 271700
TAFCPR
TAF
KCPR 271720Z 2718/2818 07009KT P6SM FEW250
     FM280300 10011KT P6SM FEW070 SCT150 BKN250
     FM280900 08006KT P6SM SCT120 BKN250
     FM281500 15008KT P6SM SCT100 BKN150=



000
FTUS45 KRIW 271700
TAFRKS
TAF
KRKS 271720Z 2718/2818 07010KT P6SM SCT250
     FM272000 03010KT P6SM FEW120 BKN250
     FM280300 08008KT P6SM SCT150 BKN250
     FM281200 07007KT P6SM SCT100 BKN150=



000
FTUS45 KRIW 271700
TAFBPI
TAF
KBPI 271720Z 2718/2818 VRB05KT P6SM SCT250
     FM280300 10007KT P6SM FEW120 BKN200
     FM281600 17008KT P6SM SCT080 BKN120=



000
FTUS45 KRIW 271700
TAFWRL
TAF
KWRL 271720Z 2718/2818 VRB05KT P6SM SKC
     FM272000 04008KT P6SM SCT250
     FM280200 13009KT P6SM SCT200=



000
FTUS45 KRIW 271100
TAFRKS
TAF
KRKS 271130Z 2712/2812 07010KT P6SM SCT250
     FM272000 03010KT P6SM FEW120 BKN250
     FM280300 08008KT P6SM SCT150 BKN250=



000
FTUS45 KRIW 271100
TAFRIW
TAF
KRIW 271130Z 2712/2812 06007KT P6SM SCT250
     FM280300 08011KT P6SM SCT200
     FM280900 VRB05KT P6SM SCT200=



000
FTUS45 KRIW 271100
TAFWRL
TAF
KWRL 271130Z 2712/2812 VRB05KT P6SM SKC
     FM272000 04008KT P6SM SCT250
     FM280200 13009KT P6SM SCT200=



000
FTUS45 KRIW 271100
TAFJAC
TAF
KJAC 271130Z 2712/2812 VRB03KT P6SM SCT250
     FM272000 24008KT P6SM FEW120 SCT200
     FM280300 36005KT P6SM SCT120 BKN200
      AMD LTD TO CLD VIS AND WIND=



000
FTUS45 KRIW 271100
TAFLND
TAF
KLND 271130Z 2712/2812 28008KT P6SM SKC
     FM271500 04007KT P6SM SCT250
     FM280100 25008KT P6SM SCT200=



000
FTUS45 KRIW 271100
TAFCOD
TAF
KCOD 271130Z 2712/2812 VRB05KT P6SM FEW250
     FM271800 05007KT P6SM SCT250
     FM280300 VRB05KT P6SM FEW150 BKN250
      AMD LTD TO CLD VIS AND WIND=



000
FTUS45 KRIW 271100
TAFCPR
TAF
KCPR 271130Z 2712/2812 01008KT P6SM SKC
     FM271500 07009KT P6SM FEW250
     FM280300 10011KT P6SM FEW070 SCT150 BKN250
     FM280900 08006KT P6SM SCT120 BKN250=



000
FTUS45 KRIW 271100
TAFBPI
TAF
KBPI 271130Z 2712/2812 VRB05KT P6SM SCT250
     FM280300 10007KT P6SM FEW120 BKN200=



000
FTUS45 KRIW 270500
TAFRKS
TAF
KRKS 270520Z 2706/2806 02006KT P6SM SCT200
     FM270800 07010KT P6SM SCT200
     FM272000 03010KT P6SM FEW120 BKN250
     FM280300 08008KT P6SM SCT150 BKN250=



000
FTUS45 KRIW 270500
TAFRIW
TAF
KRIW 270520Z 2706/2806 08007KT P6SM SCT200=



000
FTUS45 KRIW 270500
TAFBPI
TAF
KBPI 270520Z 2706/2806 34008KT P6SM SCT200
     FM270900 VRB05KT P6SM SCT200
     FM280300 10007KT P6SM FEW120 BKN200=



000
FTUS45 KRIW 270500
TAFJAC
TAF
KJAC 270520Z 2706/2806 01006KT P6SM SCT200
     FM271300 VRB03KT P6SM SCT200
     FM272000 24008KT P6SM FEW120 SCT200
     FM280300 36005KT P6SM SCT120 BKN200
      AMD LTD TO CLD VIS AND WIND=



000
FTUS45 KRIW 270500
TAFLND
TAF
KLND 270520Z 2706/2806 VRB06KT P6SM SCT200
     FM280100 25008KT P6SM SCT200=



000
FTUS45 KRIW 270500
TAFCOD
TAF
KCOD 270520Z 2706/2806 VRB05KT P6SM SKC
     FM271800 05007KT P6SM SKC
     FM280300 VRB05KT P6SM FEW150 BKN250
      AMD LTD TO CLD VIS AND WIND=



000
FTUS45 KRIW 270500
TAFWRL
TAF
KWRL 270520Z 2706/2806 VRB05KT P6SM SCT200=



000
FTUS45 KRIW 270500
TAFCPR
TAF
KCPR 270520Z 2706/2806 04008KT P6SM SCT200
     FM271200 08008KT P6SM SCT200
     FM280300 10011KT P6SM FEW070 SCT150 BKN250=



000
FTUS45 KRIW 262300
TAFBPI
TAF
KBPI 262329Z 2700/2724 29013G21KT P6SM SKC
     FM270200 34008KT P6SM SKC
     FM270900 VRB05KT P6SM SKC
     FM272000 28008KT P6SM SCT200=



000
FTUS45 KRIW 262300
TAFRKS
TAF
KRKS 262329Z 2700/2724 28016G26KT P6SM FEW100 SCT200
     FM270100 33011KT P6SM SCT200
     FM270600 06008KT P6SM SKC
     FM272000 35010G18KT P6SM SCT200=



000
FTUS45 KRIW 262300
TAFWRL
TAF
KWRL 262329Z 2700/2724 01008KT P6SM SKC
     FM270400 VRB05KT P6SM SKC=



000
FTUS45 KRIW 262300
TAFLND
TAF
KLND 262329Z 2700/2724 VRB06KT P6SM SKC=



000
FTUS45 KRIW 262300
TAFCOD
TAF
KCOD 262329Z 2700/2724 01009KT P6SM SKC
     FM270400 VRB05KT P6SM SKC
     FM272000 05008KT P6SM SKC
      AMD LTD TO CLD VIS AND WIND=



000
FTUS45 KRIW 262300
TAFRIW
TAF
KRIW 262329Z 2700/2724 07008KT P6SM SKC
     FM270500 VRB06KT P6SM SKC=



000
FTUS45 KRIW 262300
TAFCPR
TAF
KCPR 262329Z 2700/2724 35007KT P6SM SKC
     FM270300 04010KT P6SM SKC
     FM270900 08008KT P6SM SKC
     FM271200 VRB06KT P6SM SKC=



000
FTUS45 KRIW 262300
TAFJAC
TAF
KJAC 262329Z 2700/2724 24011KT P6SM SKC
     FM270200 VRB06KT P6SM SKC
     FM272000 24008KT P6SM SCT200
      AMD LTD TO CLD VIS AND WIND=



000
FTUS45 KRIW 261700
TAFCPR
TAF
KCPR 261731Z 2618/2718 32007KT P6SM FEW120
     FM262300 01012KT P6SM SKC
     FM270300 04010KT P6SM SKC
     FM270900 08008KT P6SM SKC
     FM271200 VRB06KT P6SM SKC=



000
FTUS45 KRIW 261700
TAFWRL
TAF
KWRL 261731Z 2618/2718 01008KT P6SM SKC
     FM270400 VRB05KT P6SM SKC=



000
FTUS45 KRIW 261700
TAFBPI
TAF
KBPI 261731Z 2618/2718 26009KT P6SM FEW150
     FM262000 29013G21KT P6SM SKC
     FM270200 34008KT P6SM SKC
     FM270900 VRB05KT P6SM SKC=



000
FTUS45 KRIW 261700
TAFRIW
TAF
KRIW 261731Z 2618/2718 02008KT P6SM FEW120
     FM270000 02014KT P6SM SKC
     FM270500 VRB06KT P6SM SKC=



000
FTUS45 KRIW 261700
TAFJAC
TAF
KJAC 261731Z 2618/2718 21009KT P6SM SKC
     FM262000 24011G18KT P6SM SKC
     FM270200 VRB06KT P6SM SKC
      AMD LTD TO CLD VIS AND WIND=



000
FTUS45 KRIW 261700
TAFLND
TAF
KLND 261731Z 2618/2718 02008KT P6SM SKC
     FM270200 VRB06KT P6SM SKC=



000
FTUS45 KRIW 261700
TAFCOD
TAF
KCOD 261731Z 2618/2718 02009KT P6SM SKC
     FM270400 VRB05KT P6SM SKC
      AMD LTD TO CLD VIS AND WIND=



000
FTUS45 KRIW 261700
TAFRKS
TAF
KRKS 261731Z 2618/2718 22007KT P6SM FEW090 SCT150
     FM261900 28016G26KT P6SM FEW100 SCT200
     FM270100 33011KT P6SM SCT200
     FM270600 06010KT P6SM SKC=



000
FTUS45 KRIW 261100
TAFRIW
TAF
KRIW 261132Z 2612/2712 02008KT P6SM FEW120
     FM270000 02014KT P6SM SKC
     FM270500 04007KT P6SM SKC=



000
FTUS45 KRIW 261100
TAFCOD
TAF
KCOD 261132Z 2612/2712 VRB05KT P6SM SKC
     FM261500 02009KT P6SM SKC
     FM270400 VRB05KT P6SM SKC
      AMD LTD TO CLD VIS AND WIND=



000
FTUS45 KRIW 261100
TAFJAC
TAF
KJAC 261132Z 2612/2712 VRB05KT P6SM SKC
     FM261700 21009KT P6SM SKC
     FM262000 24011G18KT P6SM SKC
     FM270200 VRB06KT P6SM SKC
      AMD LTD TO CLD VIS AND WIND=



000
FTUS45 KRIW 261100
TAFWRL
TAF
KWRL 261132Z 2612/2712 VRB04KT P6SM SKC
     FM261800 01008KT P6SM SKC
     FM270400 VRB05KT P6SM SKC=



000
FTUS45 KRIW 261100
TAFRKS
TAF
KRKS 261132Z 2612/2712 22007KT P6SM FEW090 SCT150
     FM261900 28016G26KT P6SM FEW100 SCT200
     FM270100 33011KT P6SM SCT200
     FM270600 06010KT P6SM SKC=



000
FTUS45 KRIW 261100
TAFBPI
TAF
KBPI 261132Z 2612/2712 VRB05KT P6SM FEW120
     FM261800 26009KT P6SM FEW150
     FM262000 29013G21KT P6SM SKC
     FM270200 34008KT P6SM SKC=



000
FTUS45 KRIW 261100
TAFLND
TAF
KLND 261132Z 2612/2712 VRB05KT P6SM FEW120
     FM261800 02008KT P6SM SKC
     FM270200 28006KT P6SM SKC=



000
FTUS45 KRIW 261100
TAFCPR
TAF
KCPR 261132Z 2612/2712 32007KT P6SM FEW120
     FM262300 01012KT P6SM SKC
     FM270300 04010KT P6SM SKC
     FM270900 08008KT P6SM SKC=



000
FTUS45 KRIW 260500
TAFLND
TAF
KLND 260527Z 2606/2706 25008KT P6SM SKC
     FM261000 VRB05KT P6SM SKC
     FM261800 02008KT P6SM FEW120 SCT200
     FM270200 28006KT P6SM FEW200=



000
FTUS45 KRIW 260500
TAFBPI
TAF
KBPI 260527Z 2606/2706 VRB05KT P6SM SKC
     FM261800 27009KT P6SM FEW150
     FM262200 30012G18KT P6SM FEW110 SCT150
     FM270300 32008KT P6SM SKC=



000
FTUS45 KRIW 260500
TAFJAC
TAF
KJAC 260527Z 2606/2706 VRB05KT P6SM SKC
     FM261700 22009KT P6SM FEW110 SCT200
     FM262300 26013KT P6SM SCT110 SCT200
     FM270300 VRB06KT P6SM FEW120
      AMD LTD TO CLD VIS AND WIND=



000
FTUS45 KRIW 260500
TAFWRL
TAF
KWRL 260527Z 2606/2706 VRB04KT P6SM SKC
     FM261700 02006KT P6SM FEW200
     FM262200 36010KT P6SM FEW120 SCT200
     FM270300 VRB05KT P6SM SKC=



000
FTUS45 KRIW 260500
TAFRIW
TAF
KRIW 260527Z 2606/2706 32010KT P6SM SKC
     FM261700 03007KT P6SM SCT200
     FM262300 35010KT P6SM FEW120 SCT200
     FM270300 30007KT P6SM FEW200=



000
FTUS45 KRIW 260500
TAFRKS
TAF
KRKS 260527Z 2606/2706 34009KT P6SM SCT150
     FM260800 VRB05KT P6SM SCT150
     FM261900 27008KT P6SM FEW110 SCT150
     FM262200 29016G24KT P6SM SCT100
     FM270300 31009KT P6SM FEW100=



000
FTUS45 KRIW 260500
TAFCPR
TAF
KCPR 260527Z 2606/2706 34009KT P6SM FEW150
     FM261000 VRB05KT P6SM SKC
     FM261900 34011KT P6SM FEW200
     FM270200 03013KT P6SM FEW120 SCT200=



000
FTUS45 KRIW 260500
TAFCOD
TAF
KCOD 260527Z 2606/2706 VRB05KT P6SM SKC
     FM261700 04007KT P6SM FEW200
     FM262300 29012KT P6SM FEW120 SCT200
     FM270400 VRB06KT P6SM SKC
      AMD LTD TO CLD VIS AND WIND=



000
FTUS45 KRIW 252300
TAFWRL
TAF
KWRL 252324Z 2600/2624 36010KT P6SM SKC
     FM260400 VRB05KT P6SM SKC
     FM262100 33008KT P6SM SKC=



000
FTUS45 KRIW 252300
TAFRIW
TAF
KRIW 252324Z 2600/2624 28018G26KT P6SM FEW120
     FM260300 30010KT P6SM SKC
     FM261400 04006KT P6SM SKC=



000
FTUS45 KRIW 252300
TAFBPI
TAF
KBPI 252324Z 2600/2624 29014G22KT P6SM FEW110
     FM260200 31008KT P6SM SKC
     FM260700 VRB05KT P6SM SKC
     FM262000 30011G18KT P6SM SKC=



000
FTUS45 KRIW 252300
TAFLND
TAF
KLND 252324Z 2600/2624 27017G27KT P6SM FEW120
     FM260200 26009KT P6SM SKC
     FM260900 VRB05KT P6SM SKC
     FM262000 02008KT P6SM SKC=



000
FTUS45 KRIW 252300
TAFJAC
TAF
KJAC 252324Z 2600/2624 21016G22KT P6SM FEW100
     FM260130 19009KT P6SM SKC
     FM260600 VRB05KT P6SM SKC
     FM261800 19009KT P6SM SKC
      AMD LTD TO CLD VIS AND WIND=



000
FTUS45 KRIW 252300
TAFCOD
TAF
KCOD 252324Z 2600/2624 28016G26KT P6SM FEW120
     FM260200 29011KT P6SM SKC
     FM260500 VRB05KT P6SM SKC
     FM261900 03007KT P6SM SKC
      AMD LTD TO CLD VIS AND WIND=



000
FTUS45 KRIW 252300
TAFRKS
TAF
KRKS 252324Z 2600/2624 27021G29KT P6SM FEW110 SCT150
     FM260300 28013KT P6SM FEW150
     FM260600 VRB06KT P6SM FEW150
     FM262000 28015G27KT P6SM SKC=



000
FTUS45 KRIW 252300
TAFCPR
TAF
KCPR 252324Z 2600/2624 26016G26KT P6SM VCTS SCT110CB
     FM260130 31009KT P6SM VCSH SCT120
     FM260400 VRB06KT P6SM SKC
     FM262000 34010KT P6SM SKC=



000
FTUS45 KRIW 251700
TAFLND
TAF
KLND 251723Z 2518/2618 VRB05KT P6SM FEW110
     FM252100 28016G24KT P6SM FEW120
     FM260200 26009KT P6SM SKC
     FM260900 VRB05KT P6SM SKC=



000
FTUS45 KRIW 251700
TAFCPR
TAF
KCPR 251723Z 2518/2618 22009KT P6SM FEW120
     FM252000 26012G18KT P6SM VCTS SCT110CB
     FM260100 31009KT P6SM VCSH SCT120
     FM260400 VRB06KT P6SM SKC=



000
FTUS45 KRIW 251700
TAFRIW
TAF
KRIW 251723Z 2518/2618 VRB05KT P6SM SCT110
     FM251900 26009KT P6SM SKC
     FM252200 29020G28KT P6SM FEW120
     FM260400 30010KT P6SM SKC
     FM261400 04006KT P6SM SKC=



000
FTUS45 KRIW 251700
TAFBPI
TAF
KBPI 251723Z 2518/2618 VRB05KT P6SM SKC
     FM251900 26010KT P6SM SKC
     FM252300 29014G22KT P6SM FEW110
     FM260200 31009KT P6SM SKC
     FM260700 VRB05KT P6SM SKC=



000
FTUS45 KRIW 251700
TAFCOD
TAF
KCOD 251723Z 2518/2618 VRB05KT P6SM SKC
     FM251900 26011KT P6SM SKC
     FM252200 28016G24KT P6SM FEW120
     FM260200 29011KT P6SM SKC
     FM260500 VRB05KT P6SM SKC
      AMD LTD TO CLD VIS AND WIND=



000
FTUS45 KRIW 251700
TAFJAC
TAF
KJAC 251723Z 2518/2618 22011KT P6SM SKC
     FM252100 23016G24KT P6SM FEW100
     FM260130 19009KT P6SM SKC
     FM260600 VRB05KT P6SM SKC
      AMD LTD TO CLD VIS AND WIND=



000
FTUS45 KRIW 251700
TAFRKS
TAF
KRKS 251723Z 2518/2618 25014KT P6SM FEW110 SCT150
     FM252100 27020G28KT P6SM FEW110 SCT150
     FM260300 28013KT P6SM FEW150
     FM260600 VRB06KT P6SM FEW150=



000
FTUS45 KRIW 251700
TAFWRL
TAF
KWRL 251723Z 2518/2618 VRB04KT P6SM SCT150
     FM251900 01008KT P6SM SKC
     FM252300 34014KT P6SM SKC
     FM260400 VRB06KT P6SM SKC=



000
FTUS45 KRIW 251100
TAFBPI
TAF
KBPI 251139Z 2512/2612 VRB05KT P6SM SKC
     FM251900 26010KT P6SM SKC
     FM252300 29014G22KT P6SM FEW110
     FM260200 31009KT P6SM SKC
     FM260700 VRB05KT P6SM SKC=



000
FTUS45 KRIW 251100
TAFWRL
TAF
KWRL 251139Z 2512/2612 VRB04KT P6SM SCT150
     FM251900 01008KT P6SM SKC
     FM252300 34014KT P6SM SKC
     FM260400 29007KT P6SM SKC=



000
FTUS45 KRIW 251100
TAFLND
TAF
KLND 251139Z 2512/2612 VRB05KT P6SM FEW110
     FM252100 28016G24KT P6SM FEW120
     FM260200 26009KT P6SM SKC=



000
FTUS45 KRIW 251100
TAFRKS
TAF
KRKS 251139Z 2512/2612 VRB05KT P6SM FEW150
     FM251800 25014KT P6SM FEW110 SCT150
     FM252100 27020G28KT P6SM FEW110 SCT150
     FM260300 28013KT P6SM FEW150
     FM260600 VRB06KT P6SM FEW150=



000
FTUS45 KRIW 251100
TAFCOD
TAF
KCOD 251139Z 2512/2612 VRB05KT P6SM SKC
     FM251900 26011KT P6SM SKC
     FM252200 28016G24KT P6SM FEW120
     FM260200 29011KT P6SM SKC
     FM260500 VRB05KT P6SM SKC
      AMD LTD TO CLD VIS AND WIND=



000
FTUS45 KRIW 251100
TAFRIW
TAF
KRIW 251139Z 2512/2612 VRB05KT P6SM SCT110
     FM251900 26009KT P6SM SKC
     FM252200 29020G28KT P6SM FEW120
     FM260400 30010KT P6SM SKC=



000
FTUS45 KRIW 251100
TAFCPR
TAF
KCPR 251139Z 2512/2612 04006KT P6SM VCSH BKN110
     FM251500 VRB05KT P6SM FEW120
     FM251800 22009KT P6SM FEW120
     FM252000 26012G18KT P6SM VCTS SCT110CB
     FM260100 31009KT P6SM VCSH SCT120
     FM260400 VRB06KT P6SM SKC=



000
FTUS45 KRIW 251100
TAFJAC
TAF
KJAC 251139Z 2512/2612 VRB05KT P6SM FEW150
     FM251800 22012KT P6SM SKC
     FM252100 23016G24KT P6SM FEW100
     FM260130 19009KT P6SM SKC
     FM260600 VRB05KT P6SM SKC
      AMD LTD TO CLD VIS AND WIND=



    US Dept of Commerce
    National Oceanic and Atmospheric Administration
    National Weather Service
    1325 East West Highway
    Silver Spring, MD 20910
    Page Author: NWS Internet Services Team
Disclaimer
Information Quality
Credits
Glossary
Privacy Policy
Freedom of Information Act (FOIA)
About Us
Career Opportunities